createdAt,value
2022-12-25T00:02:01.616Z,94.40
2022-12-25T00:04:28.373Z,94.40
2022-12-25T00:06:55.724Z,94.40
2022-12-25T00:09:22.553Z,94.50
2022-12-25T00:11:49.349Z,94.50
2022-12-25T00:14:16.124Z,94.50
2022-12-25T00:16:42.979Z,94.50
2022-12-25T00:19:09.737Z,94.60
2022-12-25T00:21:36.474Z,94.60
2022-12-25T00:24:03.619Z,94.70
2022-12-25T00:26:30.471Z,94.60
2022-12-25T00:28:57.766Z,94.60
2022-12-25T00:31:25.163Z,94.60
2022-12-25T00:33:52.219Z,94.60
2022-12-25T00:36:20.750Z,94.60
2022-12-25T00:38:47.528Z,94.60
2022-12-25T00:41:16.340Z,94.80
2022-12-25T00:43:43.318Z,94.70
2022-12-25T00:46:11.460Z,94.70
2022-12-25T00:48:38.475Z,94.70
2022-12-25T00:51:06.945Z,94.80
2022-12-25T00:53:33.919Z,94.80
2022-12-25T00:56:03.239Z,94.80
2022-12-25T00:58:30.987Z,94.80
2022-12-25T01:00:57.899Z,94.80
2022-12-25T01:03:24.957Z,94.70
2022-12-25T01:06:01.839Z,94.70
2022-12-25T01:08:29.977Z,94.70
2022-12-25T01:10:58.426Z,94.60
2022-12-25T01:13:25.373Z,94.60
2022-12-25T01:15:52.634Z,94.60
2022-12-25T01:18:20.035Z,94.60
2022-12-25T01:20:46.936Z,94.60
2022-12-25T01:23:14.045Z,94.60
2022-12-25T01:25:40.906Z,94.60
2022-12-25T01:28:07.850Z,94.60
2022-12-25T01:30:35.624Z,94.60
2022-12-25T01:33:02.523Z,94.50
2022-12-25T01:35:29.320Z,94.50
2022-12-25T01:37:56.097Z,94.60
2022-12-25T01:40:22.945Z,94.60
2022-12-25T01:42:49.759Z,94.70
2022-12-25T01:45:40.482Z,94.70
2022-12-25T01:48:11.148Z,94.70
2022-12-25T01:50:38.064Z,94.70
2022-12-25T01:53:04.842Z,94.80
2022-12-25T01:55:31.627Z,95.10
2022-12-25T01:57:58.414Z,94.90
2022-12-25T02:00:25.170Z,94.90
2022-12-25T02:02:52.135Z,94.90
2022-12-25T02:05:30.416Z,94.90
2022-12-25T02:08:02.078Z,94.90
2022-12-25T02:10:28.941Z,94.90
2022-12-25T02:12:55.732Z,94.90
2022-12-25T02:15:24.886Z,94.90
2022-12-25T02:18:00.502Z,94.90
2022-12-25T02:20:33.335Z,95.00
2022-12-25T02:23:13.971Z,95.10
2022-12-25T02:25:59.343Z,95.10
2022-12-25T02:28:46.205Z,95.10
2022-12-25T02:31:48.263Z,95.10
2022-12-25T02:34:26.240Z,95.10
2022-12-25T02:37:10.770Z,95.20
2022-12-25T02:39:58.921Z,95.20
2022-12-25T02:42:51.071Z,95.20
2022-12-25T02:45:53.674Z,95.30
2022-12-25T02:48:40.259Z,95.30
2022-12-25T02:51:28.925Z,95.30
2022-12-25T02:54:15.048Z,95.30
2022-12-25T02:57:01.462Z,95.20
2022-12-25T02:59:47.321Z,95.20
2022-12-25T03:02:33.577Z,95.30
2022-12-25T03:05:19.773Z,95.20
2022-12-25T03:07:46.641Z,95.20
2022-12-25T03:10:34.003Z,95.30
2022-12-25T03:13:03.594Z,95.30
2022-12-25T03:15:48.839Z,95.20
2022-12-25T03:18:17.039Z,95.20
2022-12-25T03:21:02.327Z,95.30
2022-12-25T03:23:50.187Z,95.50
2022-12-25T03:26:35.817Z,95.30
2022-12-25T03:29:02.639Z,95.60
2022-12-25T03:31:39.172Z,95.40
2022-12-25T03:34:34.034Z,95.40
2022-12-25T03:37:20.310Z,95.40
2022-12-25T03:39:55.504Z,95.40
2022-12-25T03:42:45.349Z,95.40
2022-12-25T03:45:42.254Z,95.50
2022-12-25T03:48:27.405Z,95.50
2022-12-25T03:51:18.464Z,95.50
2022-12-25T03:54:06.545Z,95.50
2022-12-25T03:56:52.034Z,95.50
2022-12-25T03:59:38.249Z,95.50
2022-12-25T04:02:23.867Z,95.50
2022-12-25T04:05:09.525Z,95.60
2022-12-25T04:07:54.794Z,95.60
2022-12-25T04:10:40.006Z,95.80
2022-12-25T04:13:25.244Z,95.60
2022-12-25T04:16:11.271Z,95.60
2022-12-25T04:18:56.589Z,95.60
2022-12-25T04:21:42.543Z,95.70
2022-12-25T04:24:28.891Z,95.70
2022-12-25T04:27:14.251Z,95.70
2022-12-25T04:29:59.628Z,95.70
2022-12-25T04:32:44.882Z,95.70
2022-12-25T04:35:30.442Z,95.90
2022-12-25T04:37:57.235Z,95.60
2022-12-25T04:40:23.989Z,95.60
2022-12-25T04:42:51.473Z,95.60
2022-12-25T04:45:18.379Z,95.60
2022-12-25T04:47:45.180Z,95.70
2022-12-25T04:50:11.971Z,95.70
2022-12-25T04:52:39.430Z,95.70
2022-12-25T04:55:06.788Z,95.70
2022-12-25T04:57:33.620Z,95.60
2022-12-25T05:00:00.461Z,95.60
2022-12-25T05:02:27.359Z,95.50
2022-12-25T05:04:54.321Z,95.50
2022-12-25T05:07:21.153Z,95.50
2022-12-25T05:09:47.936Z,95.50
2022-12-25T05:12:14.668Z,95.40
2022-12-25T05:14:41.507Z,95.40
2022-12-25T05:17:08.372Z,95.40
2022-12-25T05:19:35.226Z,95.40
2022-12-25T05:22:02.098Z,95.40
2022-12-25T05:24:28.938Z,95.40
2022-12-25T05:26:55.714Z,95.40
2022-12-25T05:29:22.482Z,95.50
2022-12-25T05:31:49.368Z,95.50
2022-12-25T05:34:16.218Z,95.50
2022-12-25T05:36:43.048Z,95.50
2022-12-25T05:39:09.849Z,95.50
2022-12-25T05:41:36.607Z,95.70
2022-12-25T05:44:03.487Z,95.50
2022-12-25T05:46:30.376Z,95.50
2022-12-25T05:48:57.164Z,95.50
2022-12-25T05:51:25.173Z,95.50
2022-12-25T05:53:52.138Z,95.50
2022-12-25T05:56:18.933Z,95.50
2022-12-25T05:58:45.686Z,95.50
2022-12-25T06:01:14.083Z,95.50
2022-12-25T06:03:40.867Z,95.50
2022-12-25T06:06:08.319Z,95.50
2022-12-25T06:08:35.226Z,95.50
2022-12-25T06:11:05.742Z,95.50
2022-12-25T06:13:33.095Z,95.50
2022-12-25T06:15:59.952Z,95.50
2022-12-25T06:18:26.886Z,95.50
2022-12-25T06:20:53.760Z,95.50
2022-12-25T06:23:20.531Z,95.50
2022-12-25T06:25:47.363Z,95.50
2022-12-25T06:28:14.126Z,95.50
2022-12-25T06:30:40.899Z,95.50
2022-12-25T06:33:07.678Z,95.50
2022-12-25T06:35:34.528Z,95.40
2022-12-25T06:38:01.298Z,95.40
2022-12-25T06:40:28.172Z,95.40
2022-12-25T06:42:54.963Z,95.40
2022-12-25T06:45:21.757Z,95.40
2022-12-25T06:47:48.560Z,95.40
2022-12-25T06:50:15.355Z,95.40
2022-12-25T06:52:42.191Z,95.40
2022-12-25T06:55:09.390Z,95.40
2022-12-25T06:57:36.277Z,95.40
2022-12-25T07:00:03.613Z,95.40
2022-12-25T07:02:30.562Z,95.40
2022-12-25T07:04:57.397Z,95.40
2022-12-25T07:07:24.240Z,95.40
2022-12-25T07:09:51.062Z,95.40
2022-12-25T07:12:23.569Z,95.40
2022-12-25T07:14:53.831Z,95.40
2022-12-25T07:17:20.768Z,95.40
2022-12-25T07:19:47.608Z,95.60
2022-12-25T07:22:14.655Z,95.40
2022-12-25T07:24:41.474Z,95.60
2022-12-25T07:27:08.481Z,95.40
2022-12-25T07:29:35.284Z,95.40
2022-12-25T07:32:02.166Z,95.60
2022-12-25T07:34:29.012Z,95.40
2022-12-25T07:36:55.842Z,95.40
2022-12-25T07:39:23.829Z,95.40
2022-12-25T07:41:51.214Z,95.40
2022-12-25T07:44:18.202Z,95.30
2022-12-25T07:46:45.131Z,95.30
2022-12-25T07:49:12.120Z,95.30
2022-12-25T07:51:39.041Z,95.30
2022-12-25T07:54:05.904Z,95.30
2022-12-25T07:56:32.786Z,95.30
2022-12-25T07:58:59.653Z,95.30
2022-12-25T08:01:26.938Z,95.30
2022-12-25T08:03:55.564Z,95.50
2022-12-25T08:06:23.323Z,95.30
2022-12-25T08:08:50.096Z,95.30
2022-12-25T08:11:16.933Z,95.30
2022-12-25T08:13:43.732Z,95.30
2022-12-25T08:16:10.697Z,95.30
2022-12-25T08:18:38.118Z,95.30
2022-12-25T08:21:09.846Z,95.30
2022-12-25T08:23:38.128Z,95.30
2022-12-25T08:26:06.011Z,95.20
2022-12-25T08:28:33.219Z,95.20
2022-12-25T08:31:00.101Z,95.20
2022-12-25T08:33:27.037Z,95.20
2022-12-25T08:35:53.850Z,95.30
2022-12-25T08:38:20.676Z,95.30
2022-12-25T08:40:47.494Z,95.30
2022-12-25T08:43:14.240Z,95.30
2022-12-25T08:45:41.068Z,95.30
2022-12-25T08:48:07.877Z,95.30
2022-12-25T08:50:34.618Z,95.30
2022-12-25T08:53:01.488Z,95.30
2022-12-25T08:55:28.325Z,95.30
2022-12-25T08:57:55.114Z,95.30
2022-12-25T09:00:22.050Z,95.30
2022-12-25T09:02:48.929Z,95.30
2022-12-25T09:05:15.907Z,95.30
2022-12-25T09:07:42.699Z,95.30
2022-12-25T09:10:09.971Z,95.30
2022-12-25T09:12:36.738Z,95.30
2022-12-25T09:15:04.774Z,95.30
2022-12-25T09:17:32.235Z,95.30
2022-12-25T09:19:59.205Z,95.20
2022-12-25T09:22:26.029Z,95.20
2022-12-25T09:24:52.817Z,95.40
2022-12-25T09:27:19.648Z,95.40
2022-12-25T09:29:46.482Z,95.10
2022-12-25T09:32:13.318Z,95.10
2022-12-25T09:34:40.062Z,95.30
2022-12-25T09:37:06.818Z,95.30
2022-12-25T09:39:33.609Z,95.10
2022-12-25T09:42:02.545Z,95.10
2022-12-25T09:44:35.062Z,95.10
2022-12-25T09:47:04.657Z,95.30
2022-12-25T09:49:48.927Z,95.00
2022-12-25T09:52:20.817Z,94.90
2022-12-25T09:55:02.393Z,95.00
2022-12-25T09:57:29.190Z,95.00
2022-12-25T09:59:55.961Z,95.10
2022-12-25T10:02:26.251Z,95.40
2022-12-25T10:05:17.413Z,95.00
2022-12-25T10:07:49.965Z,94.90
2022-12-25T10:10:28.922Z,94.70
2022-12-25T10:13:01.196Z,94.40
2022-12-25T10:15:33.963Z,94.30
2022-12-25T10:18:27.356Z,94.20
2022-12-25T10:20:57.796Z,94.10
2022-12-25T10:23:34.556Z,94.00
2022-12-25T10:26:01.558Z,94.00
2022-12-25T10:28:44.239Z,94.00
2022-12-25T10:31:18.706Z,94.00
2022-12-25T10:33:45.587Z,94.20
2022-12-25T10:36:14.058Z,94.00
2022-12-25T10:38:40.863Z,94.00
2022-12-25T10:41:34.409Z,94.00
2022-12-25T10:44:04.006Z,94.00
2022-12-25T10:46:30.977Z,94.00
2022-12-25T10:48:59.407Z,94.00
2022-12-25T10:51:37.224Z,94.00
2022-12-25T10:54:18.763Z,94.00
2022-12-25T10:57:09.782Z,94.00
2022-12-25T10:59:43.478Z,94.00
2022-12-25T11:02:27.440Z,94.00
2022-12-25T11:05:01.491Z,94.00
2022-12-25T11:07:28.410Z,94.00
2022-12-25T11:10:04.678Z,94.30
2022-12-25T11:12:42.872Z,94.00
2022-12-25T11:15:37.705Z,94.20
2022-12-25T11:18:16.772Z,93.90
2022-12-25T11:20:49.483Z,93.90
2022-12-25T11:23:20.271Z,93.90
2022-12-25T11:26:03.374Z,93.90
2022-12-25T11:28:31.538Z,93.90
2022-12-25T11:31:06.643Z,93.90
2022-12-25T11:33:37.130Z,93.90
2022-12-25T11:36:09.365Z,93.90
2022-12-25T11:38:36.154Z,93.90
2022-12-25T11:41:03.233Z,93.80
2022-12-25T11:43:30.004Z,93.70
2022-12-25T11:46:05.032Z,93.70
2022-12-25T11:48:37.053Z,93.60
2022-12-25T11:51:03.865Z,93.50
2022-12-25T11:53:39.919Z,93.50
2022-12-25T11:56:18.199Z,93.40
2022-12-25T11:58:52.902Z,93.30
2022-12-25T12:01:44.604Z,93.10
2022-12-25T12:04:40.302Z,93.10
2022-12-25T12:07:13.814Z,93.00
2022-12-25T12:10:02.309Z,92.90
2022-12-25T12:12:55.473Z,92.70
2022-12-25T12:15:29.009Z,92.50
2022-12-25T12:17:55.953Z,92.30
2022-12-25T12:20:34.528Z,92.00
2022-12-25T12:23:03.293Z,91.30
2022-12-25T12:25:30.273Z,91.20
2022-12-25T12:28:05.296Z,90.50
2022-12-25T12:30:34.660Z,90.20
2022-12-25T12:33:03.509Z,90.00
2022-12-25T12:35:35.598Z,89.80
2022-12-25T12:38:07.788Z,89.50
2022-12-25T12:40:38.851Z,89.70
2022-12-25T12:43:06.378Z,89.60
2022-12-25T12:45:35.077Z,89.90
2022-12-25T12:48:02.096Z,89.80
2022-12-25T12:50:42.092Z,89.70
2022-12-25T12:53:24.257Z,89.40
2022-12-25T12:55:51.527Z,89.30
2022-12-25T12:58:35.615Z,89.70
2022-12-25T13:01:31.070Z,89.40
2022-12-25T13:04:16.688Z,89.60
2022-12-25T13:07:02.989Z,89.80
2022-12-25T13:09:45.384Z,89.80
2022-12-25T13:12:12.456Z,89.90
2022-12-25T13:14:43.837Z,90.10
2022-12-25T13:17:10.649Z,90.10
2022-12-25T13:19:37.540Z,90.10
2022-12-25T13:22:05.610Z,90.10
2022-12-25T13:24:34.102Z,90.10
2022-12-25T13:27:01.159Z,90.40
2022-12-25T13:29:38.546Z,90.10
2022-12-25T13:32:07.179Z,90.10
2022-12-25T13:34:41.923Z,90.20
2022-12-25T13:37:29.947Z,90.20
2022-12-25T13:40:00.572Z,90.10
2022-12-25T13:42:31.406Z,90.20
2022-12-25T13:45:06.377Z,90.20
2022-12-25T13:47:34.863Z,90.30
2022-12-25T13:50:21.223Z,90.40
2022-12-25T13:52:47.972Z,90.70
2022-12-25T13:55:18.727Z,90.60
2022-12-25T13:57:55.258Z,90.60
2022-12-25T14:00:23.440Z,90.70
2022-12-25T14:02:52.023Z,90.70
2022-12-25T14:05:28.090Z,90.70
2022-12-25T14:07:55.955Z,90.80
2022-12-25T14:10:24.344Z,90.90
2022-12-25T14:12:51.332Z,90.90
2022-12-25T14:15:22.193Z,91.00
2022-12-25T14:17:49.676Z,91.00
2022-12-25T14:20:56.644Z,91.00
2022-12-25T14:23:23.390Z,91.00
2022-12-25T14:25:50.187Z,91.00
2022-12-25T14:28:21.927Z,90.90
2022-12-25T14:30:48.831Z,91.10
2022-12-25T14:33:17.650Z,90.80
2022-12-25T14:35:44.746Z,90.80
2022-12-25T14:38:26.707Z,90.90
2022-12-25T14:41:00.185Z,90.90
2022-12-25T14:43:27.610Z,90.90
2022-12-25T14:45:59.217Z,91.00
2022-12-25T14:48:28.066Z,91.00
2022-12-25T14:51:04.836Z,91.00
2022-12-25T14:53:38.091Z,91.10
2022-12-25T14:56:05.215Z,91.10
2022-12-25T14:58:32.744Z,91.20
2022-12-25T15:01:01.458Z,91.20
2022-12-25T15:03:37.800Z,91.30
2022-12-25T15:06:19.146Z,91.30
2022-12-25T15:08:58.175Z,91.30
2022-12-25T15:11:25.044Z,91.30
2022-12-25T15:13:51.898Z,91.40
2022-12-25T15:16:22.672Z,91.40
2022-12-25T15:18:49.553Z,91.40
2022-12-25T15:21:17.828Z,91.70
2022-12-25T15:23:44.659Z,91.50
2022-12-25T15:26:14.758Z,91.60
2022-12-25T15:28:41.823Z,91.70
2022-12-25T15:31:25.242Z,91.70
2022-12-25T15:33:52.941Z,91.70
2022-12-25T15:36:19.724Z,91.70
2022-12-25T15:38:46.550Z,91.80
2022-12-25T15:41:33.353Z,91.90
2022-12-25T15:44:00.755Z,91.90
2022-12-25T15:46:27.623Z,92.00
2022-12-25T15:48:54.411Z,92.00
2022-12-25T15:51:21.417Z,92.30
2022-12-25T15:53:48.244Z,92.10
2022-12-25T15:56:15.177Z,92.20
2022-12-25T15:58:42.014Z,92.20
2022-12-25T16:01:17.633Z,92.20
2022-12-25T16:03:44.632Z,92.30
2022-12-25T16:06:18.230Z,92.30
2022-12-25T16:08:45.398Z,92.40
2022-12-25T16:11:12.194Z,92.40
2022-12-25T16:13:39.074Z,92.40
2022-12-25T16:16:06.936Z,92.50
2022-12-25T16:18:33.788Z,92.60
2022-12-25T16:21:00.537Z,92.60
2022-12-25T16:23:27.314Z,92.60
2022-12-25T16:25:54.101Z,92.90
2022-12-25T16:28:20.908Z,92.70
2022-12-25T16:30:47.902Z,92.70
2022-12-25T16:33:15.343Z,92.70
2022-12-25T16:35:42.307Z,92.70
2022-12-25T16:38:11.164Z,92.70
2022-12-25T16:40:37.973Z,92.70
2022-12-25T16:43:04.720Z,92.80
2022-12-25T16:45:31.555Z,92.80
2022-12-25T16:47:58.317Z,92.80
2022-12-25T16:50:25.073Z,93.00
2022-12-25T16:52:52.236Z,92.90
2022-12-25T16:55:19.016Z,92.90
2022-12-25T16:57:48.304Z,92.90
2022-12-25T17:00:15.475Z,93.00
2022-12-25T17:02:42.519Z,93.00
2022-12-25T17:05:09.727Z,93.30
2022-12-25T17:07:37.342Z,93.10
2022-12-25T17:10:05.636Z,93.10
2022-12-25T17:12:33.242Z,93.20
2022-12-25T17:15:00.048Z,93.20
2022-12-25T17:17:26.877Z,93.20
2022-12-25T17:19:53.747Z,93.20
2022-12-25T17:22:20.562Z,93.20
2022-12-25T17:24:47.323Z,93.30
2022-12-25T17:27:14.089Z,93.30
2022-12-25T17:29:41.116Z,93.50
2022-12-25T17:32:08.114Z,93.30
2022-12-25T17:34:35.105Z,93.60
2022-12-25T17:37:01.937Z,93.40
2022-12-25T17:39:28.885Z,93.40
2022-12-25T17:41:55.811Z,93.40
2022-12-25T17:44:22.703Z,93.60
2022-12-25T17:46:50.479Z,93.40
2022-12-25T17:49:19.311Z,93.40
2022-12-25T17:51:46.254Z,93.40
2022-12-25T17:54:13.227Z,93.40
2022-12-25T17:56:40.016Z,93.40
2022-12-25T17:59:08.296Z,93.50
2022-12-25T18:01:36.606Z,93.50
2022-12-25T18:04:03.919Z,93.60
2022-12-25T18:06:30.691Z,93.70
2022-12-25T18:08:57.589Z,93.80
2022-12-25T18:11:29.003Z,93.90
2022-12-25T18:13:57.970Z,93.90
2022-12-25T18:16:25.349Z,94.00
2022-12-25T18:18:52.974Z,94.10
2022-12-25T18:21:21.006Z,94.20
2022-12-25T18:23:47.884Z,94.30
2022-12-25T18:26:14.929Z,94.60
2022-12-25T18:28:42.718Z,94.50
2022-12-25T18:31:10.503Z,94.50
2022-12-25T18:33:37.317Z,94.60
2022-12-25T18:36:04.323Z,94.60
2022-12-25T18:38:31.140Z,94.70
2022-12-25T18:40:58.045Z,94.70
2022-12-25T18:43:53.185Z,94.80
2022-12-25T18:46:11.846Z,94.80
2022-12-25T18:48:38.759Z,94.80
2022-12-25T18:51:11.102Z,94.90
2022-12-25T18:53:38.048Z,94.80
2022-12-25T18:56:23.828Z,94.80
2022-12-25T18:58:50.596Z,94.80
2022-12-25T19:01:21.967Z,94.90
2022-12-25T19:03:49.437Z,94.90
2022-12-25T19:06:21.557Z,94.90
2022-12-25T19:08:48.486Z,95.00
2022-12-25T19:11:15.653Z,95.00
2022-12-25T19:13:42.631Z,95.00
2022-12-25T19:16:09.642Z,95.10
2022-12-25T19:18:36.790Z,94.90
2022-12-25T19:21:05.000Z,94.90
2022-12-25T19:23:31.798Z,94.90
2022-12-25T19:25:58.572Z,94.90
2022-12-25T19:28:25.553Z,95.00
2022-12-25T19:30:53.903Z,95.00
2022-12-25T19:33:21.465Z,95.10
2022-12-25T19:35:49.018Z,95.10
2022-12-25T19:38:16.021Z,95.20
2022-12-25T19:41:00.128Z,95.20
2022-12-25T19:43:32.065Z,95.30
2022-12-25T19:45:59.552Z,95.30
2022-12-25T19:48:26.390Z,95.30
2022-12-25T19:50:53.410Z,95.40
2022-12-25T19:53:23.132Z,95.40
2022-12-25T19:55:53.034Z,95.40
2022-12-25T19:58:20.662Z,95.40
2022-12-25T20:00:57.913Z,95.40
2022-12-25T20:03:25.167Z,95.50
2022-12-25T20:05:52.098Z,95.50
2022-12-25T20:08:19.657Z,95.60
2022-12-25T20:10:46.448Z,95.70
2022-12-25T20:13:13.249Z,95.70
2022-12-25T20:15:40.121Z,95.80
2022-12-25T20:18:06.890Z,96.10
2022-12-25T20:20:33.613Z,95.90
2022-12-25T20:23:00.502Z,96.00
2022-12-25T20:25:27.378Z,95.90
2022-12-25T20:27:54.173Z,95.90
2022-12-25T20:30:20.919Z,96.00
2022-12-25T20:32:50.587Z,96.00
2022-12-25T20:35:17.762Z,96.00
2022-12-25T20:37:44.553Z,95.90
2022-12-25T20:40:12.489Z,96.00
2022-12-25T20:42:39.307Z,96.00
2022-12-25T20:45:07.630Z,96.00
2022-12-25T20:47:34.895Z,96.10
2022-12-25T20:50:01.699Z,96.10
2022-12-25T20:52:28.503Z,96.20
2022-12-25T20:54:55.259Z,96.10
2022-12-25T20:57:22.066Z,96.10
2022-12-25T20:59:49.131Z,96.10
2022-12-25T21:02:34.150Z,96.10
2022-12-25T21:05:03.265Z,96.10
2022-12-25T21:07:30.062Z,96.20
2022-12-25T21:09:56.818Z,96.20
2022-12-25T21:12:23.553Z,96.20
2022-12-25T21:14:50.336Z,96.20
2022-12-25T21:17:17.417Z,96.20
2022-12-25T21:19:44.233Z,96.40
2022-12-25T21:22:11.044Z,96.10
2022-12-25T21:24:37.921Z,96.10
2022-12-25T21:27:04.717Z,96.10
2022-12-25T21:29:31.569Z,96.10
2022-12-25T21:32:16.924Z,96.10
2022-12-25T21:34:44.425Z,96.10
2022-12-25T21:37:11.172Z,96.00
2022-12-25T21:39:38.154Z,96.00
2022-12-25T21:42:05.439Z,96.10
2022-12-25T21:44:32.234Z,96.20
2022-12-25T21:46:59.043Z,96.20
2022-12-25T21:49:44.360Z,96.20
2022-12-25T21:52:11.148Z,96.20
2022-12-25T21:54:38.032Z,96.20
2022-12-25T21:57:04.830Z,96.20
2022-12-25T21:59:31.680Z,96.40
2022-12-25T22:01:59.471Z,96.20
2022-12-25T22:04:26.403Z,96.20
2022-12-25T22:07:11.731Z,96.20
2022-12-25T22:09:38.636Z,96.10
2022-12-25T22:12:27.389Z,96.20
2022-12-25T22:15:02.755Z,96.20
2022-12-25T22:17:52.955Z,96.30
2022-12-25T22:20:26.114Z,96.20
2022-12-25T22:22:53.068Z,96.20
2022-12-25T22:25:20.257Z,96.20
2022-12-25T22:27:47.412Z,96.20
2022-12-25T22:30:16.078Z,96.50
2022-12-25T22:32:43.071Z,96.30
2022-12-25T22:35:10.385Z,96.30
2022-12-25T22:37:37.945Z,96.40
2022-12-25T22:40:05.992Z,96.40
2022-12-25T22:42:32.905Z,96.40
2022-12-25T22:44:59.672Z,96.50
2022-12-25T22:47:26.477Z,96.50
2022-12-25T22:49:53.319Z,96.50
2022-12-25T22:52:20.106Z,96.50
2022-12-25T22:54:46.876Z,96.80
2022-12-25T22:57:13.675Z,96.50
2022-12-25T22:59:40.536Z,96.50
2022-12-25T23:02:07.400Z,96.50
2022-12-25T23:04:34.295Z,96.50
2022-12-25T23:07:01.933Z,96.50
2022-12-25T23:09:28.740Z,96.50
2022-12-25T23:11:57.155Z,96.70
2022-12-25T23:14:40.071Z,96.50
2022-12-25T23:17:28.646Z,96.50
2022-12-25T23:20:14.863Z,96.50
2022-12-25T23:23:00.438Z,96.50
2022-12-25T23:25:45.705Z,96.60
2022-12-25T23:28:12.988Z,96.60
2022-12-25T23:30:39.745Z,96.50
2022-12-25T23:33:07.575Z,96.70
2022-12-25T23:35:34.441Z,96.50
2022-12-25T23:38:01.193Z,96.50
2022-12-25T23:40:27.996Z,96.50
2022-12-25T23:42:54.864Z,96.50
2022-12-25T23:45:21.817Z,96.70
2022-12-25T23:47:49.596Z,96.50
2022-12-25T23:50:16.459Z,96.50
2022-12-25T23:52:43.192Z,96.50
2022-12-25T23:55:10.103Z,96.40
2022-12-25T23:57:36.912Z,96.40
